sensor_id;sensor_type;location;lat;lon;timestamp;P1;durP1;ratioP1;P2;durP2;ratioP2
9938;SDS011;5008;50.656;7.188;2022-12-18T05:02:54;18.20;;;10.60;;
9938;SDS011;5008;50.656;7.188;2022-12-18T05:05:21;18.73;;;10.17;;
9938;SDS011;5008;50.656;7.188;2022-12-18T05:07:48;20.93;;;10.60;;
9938;SDS011;5008;50.656;7.188;2022-12-18T05:10:14;18.27;;;10.47;;
9938;SDS011;5008;50.656;7.188;2022-12-18T05:12:41;17.00;;;10.00;;
9938;SDS011;5008;50.656;7.188;2022-12-18T05:15:22;16.47;;;10.07;;
9938;SDS011;5008;50.656;7.188;2022-12-18T05:17:49;18.57;;;10.40;;
9938;SDS011;5008;50.656;7.188;2022-12-18T05:20:20;15.20;;;10.83;;
9938;SDS011;5008;50.656;7.188;2022-12-18T05:22:53;18.10;;;10.63;;
9938;SDS011;5008;50.656;7.188;2022-12-18T05:25:23;17.10;;;9.30;;
9938;SDS011;5008;50.656;7.188;2022-12-18T05:28:01;16.50;;;10.50;;
9938;SDS011;5008;50.656;7.188;2022-12-18T05:30:53;16.33;;;10.30;;
9938;SDS011;5008;50.656;7.188;2022-12-18T05:33:22;17.10;;;10.20;;
9938;SDS011;5008;50.656;7.188;2022-12-18T05:35:58;17.17;;;10.53;;
9938;SDS011;5008;50.656;7.188;2022-12-18T05:38:40;17.07;;;10.70;;
9938;SDS011;5008;50.656;7.188;2022-12-18T05:41:08;20.47;;;11.47;;
9938;SDS011;5008;50.656;7.188;2022-12-18T05:43:35;18.03;;;10.57;;
9938;SDS011;5008;50.656;7.188;2022-12-18T05:46:03;17.77;;;9.70;;
9938;SDS011;5008;50.656;7.188;2022-12-18T05:48:31;16.20;;;10.53;;
9938;SDS011;5008;50.656;7.188;2022-12-18T05:51:04;15.97;;;9.73;;
9938;SDS011;5008;50.656;7.188;2022-12-18T05:53:32;16.63;;;9.80;;
9938;SDS011;5008;50.656;7.188;2022-12-18T05:55:59;17.70;;;10.47;;
9938;SDS011;5008;50.656;7.188;2022-12-18T05:58:30;17.97;;;11.03;;
9938;SDS011;5008;50.656;7.188;2022-12-18T06:00:57;20.40;;;11.13;;
9938;SDS011;5008;50.656;7.188;2022-12-18T06:03:33;19.03;;;11.17;;
9938;SDS011;5008;50.656;7.188;2022-12-18T06:06:15;18.47;;;10.50;;
9938;SDS011;5008;50.656;7.188;2022-12-18T06:08:43;15.87;;;10.53;;
9938;SDS011;5008;50.656;7.188;2022-12-18T06:11:27;16.47;;;10.87;;
9938;SDS011;5008;50.656;7.188;2022-12-18T06:14:14;17.40;;;10.70;;
9938;SDS011;5008;50.656;7.188;2022-12-18T06:16:42;16.73;;;9.93;;
9938;SDS011;5008;50.656;7.188;2022-12-18T06:19:26;20.27;;;11.27;;
9938;SDS011;5008;50.656;7.188;2022-12-18T06:21:57;19.83;;;10.83;;
9938;SDS011;5008;50.656;7.188;2022-12-18T06:24:24;20.80;;;11.03;;
9938;SDS011;5008;50.656;7.188;2022-12-18T06:26:51;17.37;;;11.27;;
9938;SDS011;5008;50.656;7.188;2022-12-18T06:29:17;17.33;;;11.13;;
9938;SDS011;5008;50.656;7.188;2022-12-18T06:31:44;18.77;;;11.33;;
9938;SDS011;5008;50.656;7.188;2022-12-18T06:34:15;18.23;;;10.73;;
9938;SDS011;5008;50.656;7.188;2022-12-18T06:36:42;19.90;;;11.10;;
9938;SDS011;5008;50.656;7.188;2022-12-18T06:39:10;19.17;;;11.20;;
9938;SDS011;5008;50.656;7.188;2022-12-18T06:41:37;17.40;;;10.50;;
9938;SDS011;5008;50.656;7.188;2022-12-18T06:47:32;17.70;;;10.50;;
9938;SDS011;5008;50.656;7.188;2022-12-18T06:50:13;20.03;;;11.10;;
9938;SDS011;5008;50.656;7.188;2022-12-18T06:52:53;18.60;;;10.50;;
9938;SDS011;5008;50.656;7.188;2022-12-18T06:55:35;18.67;;;10.83;;
9938;SDS011;5008;50.656;7.188;2022-12-18T06:58:16;19.00;;;10.57;;
9938;SDS011;5008;50.656;7.188;2022-12-18T07:00:44;15.13;;;9.40;;
9938;SDS011;5008;50.656;7.188;2022-12-18T07:03:23;21.60;;;11.60;;
9938;SDS011;5008;50.656;7.188;2022-12-18T07:05:50;17.83;;;10.80;;
9938;SDS011;5008;50.656;7.188;2022-12-18T07:08:22;18.70;;;11.67;;
9938;SDS011;5008;50.656;7.188;2022-12-18T07:14:09;20.37;;;11.43;;
9938;SDS011;5008;50.656;7.188;2022-12-18T07:16:52;20.03;;;11.13;;
9938;SDS011;5008;50.656;7.188;2022-12-18T07:19:47;16.63;;;10.20;;
9938;SDS011;5008;50.656;7.188;2022-12-18T07:22:25;16.93;;;11.30;;
9938;SDS011;5008;50.656;7.188;2022-12-18T07:25:32;18.67;;;11.37;;
9938;SDS011;5008;50.656;7.188;2022-12-18T07:27:52;17.40;;;10.40;;
9938;SDS011;5008;50.656;7.188;2022-12-18T07:30:20;17.70;;;10.90;;
9938;SDS011;5008;50.656;7.188;2022-12-18T07:35:25;20.50;;;11.00;;
9938;SDS011;5008;50.656;7.188;2022-12-18T07:40:24;16.10;;;10.23;;
9938;SDS011;5008;50.656;7.188;2022-12-18T07:42:58;17.53;;;10.60;;
9938;SDS011;5008;50.656;7.188;2022-12-18T07:45:24;16.67;;;10.03;;
9938;SDS011;5008;50.656;7.188;2022-12-18T07:50:23;20.50;;;11.63;;
9938;SDS011;5008;50.656;7.188;2022-12-18T07:52:52;16.73;;;10.90;;
9938;SDS011;5008;50.656;7.188;2022-12-18T07:55:27;18.77;;;11.27;;
9938;SDS011;5008;50.656;7.188;2022-12-18T07:57:54;18.23;;;10.73;;
9938;SDS011;5008;50.656;7.188;2022-12-18T08:00:27;15.57;;;10.33;;
9938;SDS011;5008;50.656;7.188;2022-12-18T08:02:54;19.60;;;11.40;;
9938;SDS011;5008;50.656;7.188;2022-12-18T08:05:21;19.80;;;10.67;;
9938;SDS011;5008;50.656;7.188;2022-12-18T08:07:48;12.90;;;9.77;;
9938;SDS011;5008;50.656;7.188;2022-12-18T08:10:15;19.00;;;10.83;;
9938;SDS011;5008;50.656;7.188;2022-12-18T08:12:42;20.37;;;10.73;;
9938;SDS011;5008;50.656;7.188;2022-12-18T08:15:10;17.43;;;10.00;;
9938;SDS011;5008;50.656;7.188;2022-12-18T08:17:39;16.77;;;10.07;;
9938;SDS011;5008;50.656;7.188;2022-12-18T08:20:06;16.73;;;10.70;;
9938;SDS011;5008;50.656;7.188;2022-12-18T08:22:34;18.67;;;10.27;;
9938;SDS011;5008;50.656;7.188;2022-12-18T08:25:05;17.40;;;10.33;;
9938;SDS011;5008;50.656;7.188;2022-12-18T08:27:36;13.70;;;9.40;;
9938;SDS011;5008;50.656;7.188;2022-12-18T08:30:15;18.87;;;10.53;;
9938;SDS011;5008;50.656;7.188;2022-12-18T08:32:43;18.90;;;10.83;;
9938;SDS011;5008;50.656;7.188;2022-12-18T08:35:20;19.87;;;10.77;;
9938;SDS011;5008;50.656;7.188;2022-12-18T08:37:49;17.67;;;11.27;;
9938;SDS011;5008;50.656;7.188;2022-12-18T08:40:16;13.47;;;9.20;;
9938;SDS011;5008;50.656;7.188;2022-12-18T08:42:43;16.83;;;10.63;;
9938;SDS011;5008;50.656;7.188;2022-12-18T08:45:27;16.03;;;9.93;;
9938;SDS011;5008;50.656;7.188;2022-12-18T08:47:57;17.43;;;11.00;;
9938;SDS011;5008;50.656;7.188;2022-12-18T08:50:27;15.07;;;10.17;;
9938;SDS011;5008;50.656;7.188;2022-12-18T08:52:54;14.50;;;9.47;;
9938;SDS011;5008;50.656;7.188;2022-12-18T08:55:21;15.43;;;10.60;;
9938;SDS011;5008;50.656;7.188;2022-12-18T08:57:55;15.43;;;9.77;;
9938;SDS011;5008;50.656;7.188;2022-12-18T09:01:09;18.27;;;10.53;;
9938;SDS011;5008;50.656;7.188;2022-12-18T09:14:46;15.87;;;10.27;;
9938;SDS011;5008;50.656;7.188;2022-12-18T09:18:00;16.63;;;10.27;;
9938;SDS011;5008;50.656;7.188;2022-12-18T09:20:44;15.93;;;9.73;;
9938;SDS011;5008;50.656;7.188;2022-12-18T09:24:28;14.03;;;8.80;;
9938;SDS011;5008;50.656;7.188;2022-12-18T09:27:54;19.87;;;10.67;;
9938;SDS011;5008;50.656;7.188;2022-12-18T09:34:20;14.40;;;9.23;;
9938;SDS011;5008;50.656;7.188;2022-12-18T09:43:37;15.93;;;10.73;;
9938;SDS011;5008;50.656;7.188;2022-12-18T09:46:10;14.73;;;9.70;;
9938;SDS011;5008;50.656;7.188;2022-12-18T09:49:11;17.90;;;10.77;;
9938;SDS011;5008;50.656;7.188;2022-12-18T09:52:05;14.87;;;9.80;;
9938;SDS011;5008;50.656;7.188;2022-12-18T09:54:45;17.73;;;9.73;;
9938;SDS011;5008;50.656;7.188;2022-12-18T09:57:19;14.60;;;10.13;;
9938;SDS011;5008;50.656;7.188;2022-12-18T09:59:51;14.53;;;9.63;;
9938;SDS011;5008;50.656;7.188;2022-12-18T10:02:23;15.33;;;10.03;;
9938;SDS011;5008;50.656;7.188;2022-12-18T10:04:55;15.10;;;9.97;;
9938;SDS011;5008;50.656;7.188;2022-12-18T10:07:33;16.40;;;10.53;;
9938;SDS011;5008;50.656;7.188;2022-12-18T10:10:12;16.07;;;9.77;;
9938;SDS011;5008;50.656;7.188;2022-12-18T10:12:49;15.67;;;10.90;;
9938;SDS011;5008;50.656;7.188;2022-12-18T10:15:25;17.67;;;10.80;;
9938;SDS011;5008;50.656;7.188;2022-12-18T10:17:58;16.17;;;10.43;;
9938;SDS011;5008;50.656;7.188;2022-12-18T10:20:33;16.97;;;10.33;;
9938;SDS011;5008;50.656;7.188;2022-12-18T10:23:08;18.33;;;10.93;;
9938;SDS011;5008;50.656;7.188;2022-12-18T10:25:44;14.80;;;10.27;;
9938;SDS011;5008;50.656;7.188;2022-12-18T10:28:16;15.97;;;10.43;;
9938;SDS011;5008;50.656;7.188;2022-12-18T10:30:46;15.97;;;11.13;;
9938;SDS011;5008;50.656;7.188;2022-12-18T10:33:13;17.60;;;10.83;;
9938;SDS011;5008;50.656;7.188;2022-12-18T10:35:43;17.03;;;10.80;;
9938;SDS011;5008;50.656;7.188;2022-12-18T10:38:25;16.43;;;11.23;;
9938;SDS011;5008;50.656;7.188;2022-12-18T10:40:54;17.20;;;11.33;;
9938;SDS011;5008;50.656;7.188;2022-12-18T10:43:24;16.90;;;11.17;;
9938;SDS011;5008;50.656;7.188;2022-12-18T10:46:04;17.03;;;11.13;;
9938;SDS011;5008;50.656;7.188;2022-12-18T10:48:50;18.00;;;10.33;;
9938;SDS011;5008;50.656;7.188;2022-12-18T10:51:20;16.50;;;11.10;;
9938;SDS011;5008;50.656;7.188;2022-12-18T10:53:54;18.60;;;11.60;;
9938;SDS011;5008;50.656;7.188;2022-12-18T10:56:23;15.27;;;11.10;;
9938;SDS011;5008;50.656;7.188;2022-12-18T10:58:56;17.43;;;11.30;;
9938;SDS011;5008;50.656;7.188;2022-12-18T11:01:27;19.63;;;11.33;;
9938;SDS011;5008;50.656;7.188;2022-12-18T11:04:02;15.30;;;11.13;;
9938;SDS011;5008;50.656;7.188;2022-12-18T11:06:35;16.87;;;11.97;;
9938;SDS011;5008;50.656;7.188;2022-12-18T11:09:20;19.23;;;12.00;;
9938;SDS011;5008;50.656;7.188;2022-12-18T11:11:48;17.30;;;11.60;;
9938;SDS011;5008;50.656;7.188;2022-12-18T11:14:18;18.80;;;12.23;;
9938;SDS011;5008;50.656;7.188;2022-12-18T11:16:50;18.73;;;12.40;;
9938;SDS011;5008;50.656;7.188;2022-12-18T11:19:28;16.30;;;11.33;;
9938;SDS011;5008;50.656;7.188;2022-12-18T11:21:58;17.53;;;10.93;;
9938;SDS011;5008;50.656;7.188;2022-12-18T11:24:32;17.40;;;12.03;;
9938;SDS011;5008;50.656;7.188;2022-12-18T11:27:01;16.03;;;11.17;;
9938;SDS011;5008;50.656;7.188;2022-12-18T11:29:31;18.43;;;12.03;;
9938;SDS011;5008;50.656;7.188;2022-12-18T11:34:57;16.83;;;11.87;;
9938;SDS011;5008;50.656;7.188;2022-12-18T11:37:28;18.73;;;11.77;;
9938;SDS011;5008;50.656;7.188;2022-12-18T11:39:57;19.63;;;12.37;;
9938;SDS011;5008;50.656;7.188;2022-12-18T11:42:30;18.80;;;11.73;;
9938;SDS011;5008;50.656;7.188;2022-12-18T11:45:08;18.30;;;11.90;;
9938;SDS011;5008;50.656;7.188;2022-12-18T11:47:54;18.27;;;12.00;;
9938;SDS011;5008;50.656;7.188;2022-12-18T11:50:25;17.60;;;12.37;;
9938;SDS011;5008;50.656;7.188;2022-12-18T11:52:55;15.60;;;12.00;;
9938;SDS011;5008;50.656;7.188;2022-12-18T11:55:24;18.27;;;13.00;;
9938;SDS011;5008;50.656;7.188;2022-12-18T11:58:00;20.93;;;12.77;;
9938;SDS011;5008;50.656;7.188;2022-12-18T12:00:35;18.47;;;12.10;;
9938;SDS011;5008;50.656;7.188;2022-12-18T12:03:15;20.60;;;12.70;;
9938;SDS011;5008;50.656;7.188;2022-12-18T12:05:55;15.80;;;11.63;;
9938;SDS011;5008;50.656;7.188;2022-12-18T12:08:31;17.03;;;12.20;;
9938;SDS011;5008;50.656;7.188;2022-12-18T12:11:10;20.77;;;12.87;;
9938;SDS011;5008;50.656;7.188;2022-12-18T12:13:48;17.83;;;12.43;;
9938;SDS011;5008;50.656;7.188;2022-12-18T12:16:33;21.13;;;12.37;;
9938;SDS011;5008;50.656;7.188;2022-12-18T12:19:11;18.27;;;12.43;;
9938;SDS011;5008;50.656;7.188;2022-12-18T12:21:50;17.53;;;12.27;;
9938;SDS011;5008;50.656;7.188;2022-12-18T12:24:29;20.93;;;12.70;;
9938;SDS011;5008;50.656;7.188;2022-12-18T12:27:07;18.67;;;12.87;;
9938;SDS011;5008;50.656;7.188;2022-12-18T12:29:44;21.67;;;12.70;;
9938;SDS011;5008;50.656;7.188;2022-12-18T12:32:20;19.07;;;12.53;;
9938;SDS011;5008;50.656;7.188;2022-12-18T12:35:02;20.80;;;12.70;;
9938;SDS011;5008;50.656;7.188;2022-12-18T12:37:40;19.70;;;12.77;;
9938;SDS011;5008;50.656;7.188;2022-12-18T12:40:17;22.30;;;13.23;;
9938;SDS011;5008;50.656;7.188;2022-12-18T12:42:46;18.37;;;12.23;;
9938;SDS011;5008;50.656;7.188;2022-12-18T12:45:36;18.70;;;12.53;;
9938;SDS011;5008;50.656;7.188;2022-12-18T12:48:13;19.27;;;13.00;;
9938;SDS011;5008;50.656;7.188;2022-12-18T12:50:45;17.73;;;11.83;;
9938;SDS011;5008;50.656;7.188;2022-12-18T12:53:16;19.73;;;13.10;;
9938;SDS011;5008;50.656;7.188;2022-12-18T12:55:48;19.77;;;12.50;;
9938;SDS011;5008;50.656;7.188;2022-12-18T12:58:17;18.47;;;12.70;;
9938;SDS011;5008;50.656;7.188;2022-12-18T13:00:53;21.20;;;13.50;;
9938;SDS011;5008;50.656;7.188;2022-12-18T13:03:30;18.60;;;12.73;;
9938;SDS011;5008;50.656;7.188;2022-12-18T13:06:09;19.83;;;13.07;;
9938;SDS011;5008;50.656;7.188;2022-12-18T13:08:53;23.07;;;13.70;;
9938;SDS011;5008;50.656;7.188;2022-12-18T13:11:32;20.00;;;13.80;;
9938;SDS011;5008;50.656;7.188;2022-12-18T13:14:20;20.10;;;13.13;;
9938;SDS011;5008;50.656;7.188;2022-12-18T13:16:50;19.20;;;13.07;;
9938;SDS011;5008;50.656;7.188;2022-12-18T13:19:21;20.27;;;14.00;;
9938;SDS011;5008;50.656;7.188;2022-12-18T13:21:53;18.87;;;13.87;;
9938;SDS011;5008;50.656;7.188;2022-12-18T13:24:23;19.93;;;14.17;;
9938;SDS011;5008;50.656;7.188;2022-12-18T13:26:52;20.20;;;13.57;;
9938;SDS011;5008;50.656;7.188;2022-12-18T13:29:40;20.63;;;12.87;;
9938;SDS011;5008;50.656;7.188;2022-12-18T13:32:19;19.83;;;13.87;;
9938;SDS011;5008;50.656;7.188;2022-12-18T13:34:48;23.53;;;14.23;;
9938;SDS011;5008;50.656;7.188;2022-12-18T13:37:40;22.90;;;14.00;;
9938;SDS011;5008;50.656;7.188;2022-12-18T13:43:27;21.27;;;13.43;;
9938;SDS011;5008;50.656;7.188;2022-12-18T13:46:01;22.53;;;14.10;;
9938;SDS011;5008;50.656;7.188;2022-12-18T13:48:47;18.27;;;13.17;;
9938;SDS011;5008;50.656;7.188;2022-12-18T13:51:17;22.43;;;14.23;;
9938;SDS011;5008;50.656;7.188;2022-12-18T13:53:50;19.93;;;14.30;;
9938;SDS011;5008;50.656;7.188;2022-12-18T13:56:21;20.17;;;13.97;;
9938;SDS011;5008;50.656;7.188;2022-12-18T14:01:41;18.23;;;13.00;;
9938;SDS011;5008;50.656;7.188;2022-12-18T14:04:09;21.67;;;14.00;;
9938;SDS011;5008;50.656;7.188;2022-12-18T14:06:37;22.27;;;14.10;;
9938;SDS011;5008;50.656;7.188;2022-12-18T14:09:05;20.67;;;13.00;;
9938;SDS011;5008;50.656;7.188;2022-12-18T14:11:36;21.47;;;13.47;;
9938;SDS011;5008;50.656;7.188;2022-12-18T14:14:03;22.33;;;14.23;;
9938;SDS011;5008;50.656;7.188;2022-12-18T14:16:32;20.00;;;13.00;;
9938;SDS011;5008;50.656;7.188;2022-12-18T14:19:00;22.03;;;12.93;;
9938;SDS011;5008;50.656;7.188;2022-12-18T14:21:28;23.57;;;14.33;;
9938;SDS011;5008;50.656;7.188;2022-12-18T14:24:06;20.40;;;13.97;;
9938;SDS011;5008;50.656;7.188;2022-12-18T14:26:39;22.03;;;13.57;;
9938;SDS011;5008;50.656;7.188;2022-12-18T14:29:18;21.03;;;13.80;;
9938;SDS011;5008;50.656;7.188;2022-12-18T14:32:07;21.03;;;14.17;;
9938;SDS011;5008;50.656;7.188;2022-12-18T14:34:36;21.77;;;13.53;;
9938;SDS011;5008;50.656;7.188;2022-12-18T14:37:03;21.90;;;13.57;;
9938;SDS011;5008;50.656;7.188;2022-12-18T14:39:31;25.77;;;14.30;;
9938;SDS011;5008;50.656;7.188;2022-12-18T14:41:58;20.33;;;12.43;;
9938;SDS011;5008;50.656;7.188;2022-12-18T14:44:25;21.43;;;13.97;;
9938;SDS011;5008;50.656;7.188;2022-12-18T14:46:52;21.63;;;14.47;;
9938;SDS011;5008;50.656;7.188;2022-12-18T14:49:19;23.40;;;15.57;;
9938;SDS011;5008;50.656;7.188;2022-12-18T14:51:51;21.87;;;13.90;;
9938;SDS011;5008;50.656;7.188;2022-12-18T14:54:20;22.40;;;13.73;;
9938;SDS011;5008;50.656;7.188;2022-12-18T14:56:49;19.63;;;13.13;;
9938;SDS011;5008;50.656;7.188;2022-12-18T14:59:22;22.20;;;13.60;;
9938;SDS011;5008;50.656;7.188;2022-12-18T15:01:54;20.57;;;14.47;;
9938;SDS011;5008;50.656;7.188;2022-12-18T15:04:26;20.33;;;14.27;;
9938;SDS011;5008;50.656;7.188;2022-12-18T15:07:05;20.63;;;13.63;;
9938;SDS011;5008;50.656;7.188;2022-12-18T15:09:37;19.40;;;13.10;;
9938;SDS011;5008;50.656;7.188;2022-12-18T15:12:16;23.87;;;13.60;;
9938;SDS011;5008;50.656;7.188;2022-12-18T15:14:51;21.17;;;13.73;;
9938;SDS011;5008;50.656;7.188;2022-12-18T15:17:18;22.73;;;14.07;;
9938;SDS011;5008;50.656;7.188;2022-12-18T15:19:48;22.50;;;13.67;;
9938;SDS011;5008;50.656;7.188;2022-12-18T15:22:20;21.30;;;13.93;;
9938;SDS011;5008;50.656;7.188;2022-12-18T15:24:50;21.70;;;13.57;;
9938;SDS011;5008;50.656;7.188;2022-12-18T15:27:29;20.40;;;13.80;;
9938;SDS011;5008;50.656;7.188;2022-12-18T15:30:20;24.63;;;15.10;;
9938;SDS011;5008;50.656;7.188;2022-12-18T15:32:48;21.87;;;14.47;;
9938;SDS011;5008;50.656;7.188;2022-12-18T15:35:17;22.07;;;14.43;;
9938;SDS011;5008;50.656;7.188;2022-12-18T15:37:46;18.57;;;13.43;;
9938;SDS011;5008;50.656;7.188;2022-12-18T15:40:13;25.27;;;14.07;;
9938;SDS011;5008;50.656;7.188;2022-12-18T15:42:42;23.10;;;15.07;;
9938;SDS011;5008;50.656;7.188;2022-12-18T15:45:27;21.70;;;15.03;;
9938;SDS011;5008;50.656;7.188;2022-12-18T15:47:54;24.77;;;15.33;;
9938;SDS011;5008;50.656;7.188;2022-12-18T15:50:21;24.30;;;15.13;;
9938;SDS011;5008;50.656;7.188;2022-12-18T15:52:48;23.57;;;15.13;;
9938;SDS011;5008;50.656;7.188;2022-12-18T15:55:18;21.30;;;14.93;;
9938;SDS011;5008;50.656;7.188;2022-12-18T15:58:04;23.47;;;15.53;;
9938;SDS011;5008;50.656;7.188;2022-12-18T16:00:32;24.97;;;15.67;;
9938;SDS011;5008;50.656;7.188;2022-12-18T16:02:59;25.17;;;15.97;;
9938;SDS011;5008;50.656;7.188;2022-12-18T16:05:27;24.37;;;16.73;;
9938;SDS011;5008;50.656;7.188;2022-12-18T16:07:54;22.50;;;14.90;;
9938;SDS011;5008;50.656;7.188;2022-12-18T16:10:21;23.60;;;14.93;;
9938;SDS011;5008;50.656;7.188;2022-12-18T16:12:48;27.50;;;16.90;;
9938;SDS011;5008;50.656;7.188;2022-12-18T16:15:16;26.23;;;15.57;;
9938;SDS011;5008;50.656;7.188;2022-12-18T16:17:43;26.27;;;15.73;;
9938;SDS011;5008;50.656;7.188;2022-12-18T16:20:11;24.03;;;15.27;;
9938;SDS011;5008;50.656;7.188;2022-12-18T16:22:40;22.30;;;13.67;;
9938;SDS011;5008;50.656;7.188;2022-12-18T16:25:10;26.50;;;15.93;;
9938;SDS011;5008;50.656;7.188;2022-12-18T16:27:43;24.27;;;15.20;;
9938;SDS011;5008;50.656;7.188;2022-12-18T16:30:12;21.03;;;15.53;;
9938;SDS011;5008;50.656;7.188;2022-12-18T16:32:41;23.10;;;15.80;;
9938;SDS011;5008;50.656;7.188;2022-12-18T16:35:09;26.33;;;15.53;;
9938;SDS011;5008;50.656;7.188;2022-12-18T16:37:37;23.77;;;14.83;;
9938;SDS011;5008;50.656;7.188;2022-12-18T16:40:04;26.17;;;17.03;;
9938;SDS011;5008;50.656;7.188;2022-12-18T16:42:33;26.13;;;15.60;;
9938;SDS011;5008;50.656;7.188;2022-12-18T16:45:02;26.40;;;16.53;;
9938;SDS011;5008;50.656;7.188;2022-12-18T16:47:29;26.27;;;16.37;;
9938;SDS011;5008;50.656;7.188;2022-12-18T16:52:28;25.60;;;15.93;;
9938;SDS011;5008;50.656;7.188;2022-12-18T16:54:55;25.57;;;16.43;;
9938;SDS011;5008;50.656;7.188;2022-12-18T16:57:22;24.90;;;16.43;;
9938;SDS011;5008;50.656;7.188;2022-12-18T16:59:49;27.37;;;16.43;;
9938;SDS011;5008;50.656;7.188;2022-12-18T17:02:16;27.50;;;16.63;;
9938;SDS011;5008;50.656;7.188;2022-12-18T17:04:45;26.37;;;17.53;;
9938;SDS011;5008;50.656;7.188;2022-12-18T17:07:13;26.70;;;17.07;;
9938;SDS011;5008;50.656;7.188;2022-12-18T17:09:41;26.10;;;16.60;;
9938;SDS011;5008;50.656;7.188;2022-12-18T17:12:15;27.10;;;16.83;;
9938;SDS011;5008;50.656;7.188;2022-12-18T17:14:41;27.90;;;17.37;;
9938;SDS011;5008;50.656;7.188;2022-12-18T17:17:09;26.70;;;16.53;;
9938;SDS011;5008;50.656;7.188;2022-12-18T17:19:35;28.43;;;16.90;;
9938;SDS011;5008;50.656;7.188;2022-12-18T17:22:02;30.80;;;18.10;;
9938;SDS011;5008;50.656;7.188;2022-12-18T17:24:30;26.63;;;16.73;;
9938;SDS011;5008;50.656;7.188;2022-12-18T17:26:57;25.57;;;16.33;;
9938;SDS011;5008;50.656;7.188;2022-12-18T17:29:24;28.80;;;16.73;;
9938;SDS011;5008;50.656;7.188;2022-12-18T17:31:51;24.43;;;16.37;;
9938;SDS011;5008;50.656;7.188;2022-12-18T17:34:19;29.63;;;18.43;;
9938;SDS011;5008;50.656;7.188;2022-12-18T17:36:46;28.33;;;19.13;;
9938;SDS011;5008;50.656;7.188;2022-12-18T17:39:15;29.07;;;18.13;;
9938;SDS011;5008;50.656;7.188;2022-12-18T17:41:45;25.13;;;16.83;;
9938;SDS011;5008;50.656;7.188;2022-12-18T17:44:12;31.20;;;18.63;;
9938;SDS011;5008;50.656;7.188;2022-12-18T17:46:40;26.30;;;17.17;;
9938;SDS011;5008;50.656;7.188;2022-12-18T17:49:07;25.77;;;16.30;;
9938;SDS011;5008;50.656;7.188;2022-12-18T17:51:35;29.53;;;18.20;;
9938;SDS011;5008;50.656;7.188;2022-12-18T17:54:02;27.87;;;15.73;;
9938;SDS011;5008;50.656;7.188;2022-12-18T17:56:29;28.83;;;17.43;;
9938;SDS011;5008;50.656;7.188;2022-12-18T17:58:57;27.13;;;17.07;;
9938;SDS011;5008;50.656;7.188;2022-12-18T18:01:24;24.27;;;16.40;;
9938;SDS011;5008;50.656;7.188;2022-12-18T18:03:52;29.43;;;17.27;;
9938;SDS011;5008;50.656;7.188;2022-12-18T18:06:20;30.70;;;16.67;;
9938;SDS011;5008;50.656;7.188;2022-12-18T18:08:47;28.20;;;16.93;;
9938;SDS011;5008;50.656;7.188;2022-12-18T18:11:15;29.17;;;17.57;;
9938;SDS011;5008;50.656;7.188;2022-12-18T18:14:03;28.93;;;16.50;;
9938;SDS011;5008;50.656;7.188;2022-12-18T18:16:32;28.13;;;17.30;;
9938;SDS011;5008;50.656;7.188;2022-12-18T18:19:02;26.10;;;17.07;;
9938;SDS011;5008;50.656;7.188;2022-12-18T18:21:30;30.30;;;16.97;;
9938;SDS011;5008;50.656;7.188;2022-12-18T18:23:58;27.23;;;17.13;;
9938;SDS011;5008;50.656;7.188;2022-12-18T18:26:26;27.27;;;18.07;;
9938;SDS011;5008;50.656;7.188;2022-12-18T18:28:55;28.90;;;18.00;;
9938;SDS011;5008;50.656;7.188;2022-12-18T18:31:24;30.73;;;17.87;;
9938;SDS011;5008;50.656;7.188;2022-12-18T18:33:51;27.43;;;16.67;;
9938;SDS011;5008;50.656;7.188;2022-12-18T18:36:18;31.37;;;17.27;;
9938;SDS011;5008;50.656;7.188;2022-12-18T18:38:45;28.13;;;16.87;;
9938;SDS011;5008;50.656;7.188;2022-12-18T18:41:12;28.17;;;17.10;;
9938;SDS011;5008;50.656;7.188;2022-12-18T18:43:39;31.90;;;17.50;;
9938;SDS011;5008;50.656;7.188;2022-12-18T18:46:06;28.13;;;16.43;;
9938;SDS011;5008;50.656;7.188;2022-12-18T18:48:38;28.60;;;17.10;;
9938;SDS011;5008;50.656;7.188;2022-12-18T18:51:05;30.47;;;17.93;;
9938;SDS011;5008;50.656;7.188;2022-12-18T18:53:34;28.83;;;17.73;;
9938;SDS011;5008;50.656;7.188;2022-12-18T18:56:03;27.80;;;17.13;;
9938;SDS011;5008;50.656;7.188;2022-12-18T18:58:30;31.53;;;17.43;;
9938;SDS011;5008;50.656;7.188;2022-12-18T19:00:57;28.27;;;17.47;;
9938;SDS011;5008;50.656;7.188;2022-12-18T19:03:34;24.57;;;15.37;;
9938;SDS011;5008;50.656;7.188;2022-12-18T19:06:03;29.20;;;16.47;;
9938;SDS011;5008;50.656;7.188;2022-12-18T19:08:32;30.37;;;17.37;;
9938;SDS011;5008;50.656;7.188;2022-12-18T19:11:00;29.17;;;16.90;;
9938;SDS011;5008;50.656;7.188;2022-12-18T19:13:29;28.83;;;17.13;;
9938;SDS011;5008;50.656;7.188;2022-12-18T19:16:01;27.87;;;16.20;;
9938;SDS011;5008;50.656;7.188;2022-12-18T19:18:30;32.07;;;17.20;;
9938;SDS011;5008;50.656;7.188;2022-12-18T19:20:58;30.13;;;17.70;;
9938;SDS011;5008;50.656;7.188;2022-12-18T19:23:27;33.00;;;18.20;;
9938;SDS011;5008;50.656;7.188;2022-12-18T19:25:54;29.07;;;18.03;;
9938;SDS011;5008;50.656;7.188;2022-12-18T19:28:24;28.37;;;17.17;;
9938;SDS011;5008;50.656;7.188;2022-12-18T19:30:53;27.47;;;17.37;;
9938;SDS011;5008;50.656;7.188;2022-12-18T19:33:20;28.87;;;16.80;;
9938;SDS011;5008;50.656;7.188;2022-12-18T19:35:49;28.90;;;17.70;;
9938;SDS011;5008;50.656;7.188;2022-12-18T19:38:16;27.47;;;16.93;;
9938;SDS011;5008;50.656;7.188;2022-12-18T19:40:44;29.10;;;18.10;;
9938;SDS011;5008;50.656;7.188;2022-12-18T19:43:12;29.27;;;17.27;;
9938;SDS011;5008;50.656;7.188;2022-12-18T19:45:39;30.57;;;17.93;;
9938;SDS011;5008;50.656;7.188;2022-12-18T19:48:07;31.60;;;17.50;;
9938;SDS011;5008;50.656;7.188;2022-12-18T19:50:37;29.07;;;17.47;;
9938;SDS011;5008;50.656;7.188;2022-12-18T19:53:05;30.30;;;17.43;;
9938;SDS011;5008;50.656;7.188;2022-12-18T19:55:32;26.70;;;16.30;;
9938;SDS011;5008;50.656;7.188;2022-12-18T19:58:00;32.03;;;18.20;;
9938;SDS011;5008;50.656;7.188;2022-12-18T20:00:27;32.37;;;18.43;;
9938;SDS011;5008;50.656;7.188;2022-12-18T20:02:54;26.70;;;17.27;;
9938;SDS011;5008;50.656;7.188;2022-12-18T20:05:20;27.47;;;16.60;;
9938;SDS011;5008;50.656;7.188;2022-12-18T20:07:49;30.77;;;18.47;;
9938;SDS011;5008;50.656;7.188;2022-12-18T20:10:16;29.00;;;17.47;;
9938;SDS011;5008;50.656;7.188;2022-12-18T20:12:44;30.03;;;17.83;;
9938;SDS011;5008;50.656;7.188;2022-12-18T20:15:12;29.37;;;17.70;;
9938;SDS011;5008;50.656;7.188;2022-12-18T20:17:39;29.33;;;17.80;;
9938;SDS011;5008;50.656;7.188;2022-12-18T20:20:06;31.77;;;18.13;;
9938;SDS011;5008;50.656;7.188;2022-12-18T20:22:33;29.23;;;17.80;;
9938;SDS011;5008;50.656;7.188;2022-12-18T20:25:00;28.23;;;17.70;;
9938;SDS011;5008;50.656;7.188;2022-12-18T20:27:26;27.03;;;17.60;;
9938;SDS011;5008;50.656;7.188;2022-12-18T20:29:53;31.43;;;16.97;;
9938;SDS011;5008;50.656;7.188;2022-12-18T20:32:21;27.73;;;17.03;;
9938;SDS011;5008;50.656;7.188;2022-12-18T20:34:48;30.93;;;17.03;;
9938;SDS011;5008;50.656;7.188;2022-12-18T20:37:15;32.27;;;18.30;;
9938;SDS011;5008;50.656;7.188;2022-12-18T20:39:41;29.43;;;17.13;;
9938;SDS011;5008;50.656;7.188;2022-12-18T20:42:08;30.67;;;18.37;;
9938;SDS011;5008;50.656;7.188;2022-12-18T20:44:35;28.60;;;17.50;;
9938;SDS011;5008;50.656;7.188;2022-12-18T20:47:02;26.90;;;16.47;;
9938;SDS011;5008;50.656;7.188;2022-12-18T20:49:30;30.43;;;17.67;;
9938;SDS011;5008;50.656;7.188;2022-12-18T20:51:57;28.13;;;17.67;;
9938;SDS011;5008;50.656;7.188;2022-12-18T20:56:57;28.87;;;17.00;;
9938;SDS011;5008;50.656;7.188;2022-12-18T20:59:24;31.27;;;17.47;;
9938;SDS011;5008;50.656;7.188;2022-12-18T21:01:52;27.87;;;17.07;;
9938;SDS011;5008;50.656;7.188;2022-12-18T21:04:19;28.67;;;17.77;;
9938;SDS011;5008;50.656;7.188;2022-12-18T21:06:48;30.37;;;17.77;;
9938;SDS011;5008;50.656;7.188;2022-12-18T21:09:16;27.40;;;18.33;;